Portada
METAR-TAF:

METAR-TAF

Aeroports :

Muskogee, Oklahoma, Estats Units d'Amèrica

latitud: 35-39-25N, longitud: 095-21-35W, altitud: 185 m

Observació

L'informe es va fer fa 19 minuts, a les 19:53 UTC
Vent 12 kt del Sud/Sud-Est amb ràfegues de 21 kt
Temperatura 32°C
Humitat 56%
Pressió 1011 hPa
Visibilitat: 16.1 km
Cel ennuvolat a una alçada de 4800 ft
Cel ennuvolat a una alçada de 5500 ft

METAR: KMKO 171953Z AUTO 15012G21KT 10SM BKN048 BKN055 32/22 A2985 RMK AO2 SLP100 T03170217

Hora: 15:12 (20:12 UTC)


TAF: manca

Observacions i pronòstics meteorològics de més de 4000 aeroports (METAR i TAF).

Les estacions disponibles són els punts grocs i vermells al mapa.

Posi el ratolí al punt desitjat per veure el nom de l'estació.

Feu clic per veure les observacions i els pronòstics meteorològics.

Per canviar el mapa: feu clic els botons verds amb una creu de color negre per apropar; al botó verd amb un guió per allunyar la imatge; o en les fletxes verdes per a mapes adjacents.


METAR-TAF: